DZI weather

Las Flores Airport
Codazzi, César Department, Colombia

Public forecast

Using degrees Celsius for public forecast. Weather courtesy of forecast.io.

METAR (pilot weather report)

Closest report is Alfonso López Pumarejo Airport, 20.3 nm (37.7 km) N. Retrieved 2019/04/26 03:00 UTC (22 minutes ago):

SKVP 260300Z 06012KT 9999 SCT020 SCT100 28/23 A2996

TAF (pilot weather forecast)

Forecast is more than 12 hours old.

Closest forecast is Almirante Padilla Airport, 87.7 nm (162.5 km) NNE. Retrieved 2013/12/29 00:30 UTC (5 years ago):

TAF SKRH 262200Z 2700/2724 07010KT 9999 FEW020 SCT200 TEMPO 2701/2705 FEW017 TEMPO 2709/2711 CAVOK TEMPO 2719/2723 12007KT FEW015 TX32/2718Z TN23/2710Z